Big Creek, Idaho
Current Conditions -  °F | °C
As of 11:51 AM on Thursday 30 Oct 2014 (Local Time) from KMYL Reporting Station
Clear Clear  
Wind Chill: 48°   Ceiling: Unl
Heat Index: 48°   Visibility: 10mi
Dew Point: 39°   Wind: 0mph
Humidity: 71%   Direction: NA
Pressure: 30.18"   Gusts: NA
Location:  45.13°N, 115.32°W
Report Text: KMYL 301751Z AUTO 00000KT 10SM CLR 09/04 A3018 RMK AO2 SLP222 T00890039 10089 20011 58003
Loading
Personal Weather Stations






























Interactive Weather Map
Tropical Storm Tracking
New forecast layout! Learn more

10-Day Weather Forecast

Advertisements
Track Severe Weather on mobile